Time;durP1;ratioP1;P1;durP2;ratioP2;P2;SDS_P1;SDS_P2;PMS_P1;PMS_P2;Temp;Humidity;BMP_temperature;BMP_pressure;BME280_temperature;BME280_humidity;BME280_pressure;Samples;Min_cycle;Max_cycle;Signal;HPM_P1;HPM_P2
2021/10/14 00:02:09;;;;;;;54.00;23.45;;;11.60;99.90;;;;;;4850556;29;20045;-86
2021/10/14 00:04:35;;;;;;;36.83;21.70;;;11.60;99.90;;;;;;4891381;29;20045;-86
2021/10/14 00:07:21;;;;;;;42.22;21.50;;;11.60;99.90;;;;;;4874605;29;20040;-86
2021/10/14 00:09:47;;;;;;;57.08;24.08;;;11.70;99.90;;;;;;4839767;29;20045;-85
2021/10/14 00:12:13;;;;;;;45.90;22.83;;;11.70;99.90;;;;;;4847237;29;20080;-85
2021/10/14 00:14:38;;;;;;;41.75;21.95;;;11.70;99.90;;;;;;4836182;29;20065;-85
2021/10/14 00:17:04;;;;;;;40.47;21.55;;;11.70;99.90;;;;;;4867985;29;20292;-85
2021/10/14 00:19:31;;;;;;;42.45;22.83;;;11.70;99.90;;;;;;4868343;29;20044;-84
2021/10/14 00:21:57;;;;;;;51.17;23.02;;;11.70;99.90;;;;;;4857023;29;20079;-84
2021/10/14 00:24:23;;;;;;;35.65;22.00;;;11.70;99.90;;;;;;4870651;29;20127;-84
2021/10/14 00:26:48;;;;;;;45.55;22.67;;;11.80;99.90;;;;;;4851114;29;20037;-85
2021/10/14 00:29:14;;;;;;;54.17;24.23;;;11.80;99.90;;;;;;4869587;29;20120;-85
2021/10/14 00:31:40;;;;;;;44.88;22.38;;;11.80;99.90;;;;;;4846656;29;20036;-85
2021/10/14 00:34:06;;;;;;;41.45;22.25;;;11.80;99.90;;;;;;4849688;29;20511;-84
2021/10/14 00:36:31;;;;;;;43.42;22.50;;;11.90;99.90;;;;;;4859775;29;20143;-85
2021/10/14 00:38:57;;;;;;;41.70;23.38;;;11.80;99.90;;;;;;4843969;29;20267;-83
2021/10/14 00:41:23;;;;;;;51.28;23.88;;;11.90;99.90;;;;;;4875866;29;20045;-85
2021/10/14 00:43:57;;;;;;;47.05;23.67;;;11.90;99.90;;;;;;4854958;29;20135;-85
2021/10/14 00:46:23;;;;;;;47.47;23.83;;;11.90;99.90;;;;;;4865320;29;20052;-85
2021/10/14 00:48:49;;;;;;;50.95;26.10;;;11.90;99.90;;;;;;4864549;29;20037;-84
2021/10/14 00:51:14;;;;;;;57.67;26.17;;;11.90;99.90;;;;;;4871509;29;20037;-84
2021/10/14 00:53:40;;;;;;;57.30;27.42;;;11.90;99.90;;;;;;4848901;29;20262;-84
2021/10/14 00:56:07;;;;;;;62.88;26.58;;;11.90;99.90;;;;;;4865658;29;20552;-85
2021/10/14 00:58:34;;;;;;;56.15;25.20;;;12.00;99.90;;;;;;4867829;29;20104;-84
2021/10/14 01:01:04;;;;;;;50.88;24.15;;;11.90;99.90;;;;;;4865024;29;20067;-84
2021/10/14 01:03:31;;;;;;;54.33;25.58;;;12.00;99.90;;;;;;4876736;29;20037;-85
2021/10/14 01:05:57;;;;;;;51.65;24.35;;;12.00;99.90;;;;;;4865014;29;20631;-84
2021/10/14 01:08:24;;;;;;;55.45;25.05;;;12.00;99.90;;;;;;4857308;29;20436;-85
2021/10/14 01:10:51;;;;;;;49.13;22.63;;;12.00;99.90;;;;;;4848284;29;20045;-84
2021/10/14 01:13:17;;;;;;;43.58;22.52;;;12.00;99.90;;;;;;4868328;29;20080;-86
2021/10/14 01:15:44;;;;;;;51.42;23.30;;;12.00;99.90;;;;;;4858176;29;20048;-85
2021/10/14 01:18:11;;;;;;;57.75;23.23;;;12.00;99.90;;;;;;4873604;29;20343;-85
2021/10/14 01:20:37;;;;;;;47.35;21.73;;;12.00;99.90;;;;;;4845327;29;20080;-84
2021/10/14 01:23:03;;;;;;;42.03;21.70;;;12.00;99.90;;;;;;4863714;29;20077;-84
2021/10/14 01:25:30;;;;;;;41.28;21.20;;;12.00;99.90;;;;;;4872441;29;21768;-84
2021/10/14 01:27:56;;;;;;;45.75;21.75;;;12.00;99.90;;;;;;4842752;29;20044;-85
2021/10/14 01:30:22;;;;;;;51.15;21.23;;;12.00;99.90;;;;;;4854890;29;20487;-84
2021/10/14 01:32:49;;;;;;;44.78;19.60;;;12.00;99.90;;;;;;4860754;29;20048;-84
2021/10/14 01:35:16;;;;;;;38.40;18.05;;;12.00;99.90;;;;;;4862380;29;20041;-85
2021/10/14 01:37:42;;;;;;;37.17;17.35;;;12.00;99.90;;;;;;4854737;29;20048;-85
2021/10/14 01:40:09;;;;;;;33.35;15.90;;;12.00;99.90;;;;;;4866475;29;20559;-86
2021/10/14 01:42:35;;;;;;;35.35;15.68;;;12.00;99.90;;;;;;4840905;29;20041;-86
2021/10/14 01:45:03;;;;;;;33.50;15.88;;;12.00;99.90;;;;;;4840567;29;20123;-84
2021/10/14 01:47:33;;;;;;;34.03;16.63;;;11.90;99.90;;;;;;4852682;29;20032;-84
2021/10/14 01:49:59;;;;;;;33.00;16.85;;;12.00;99.90;;;;;;4874898;29;20076;-84
2021/10/14 01:52:24;;;;;;;35.10;17.00;;;12.00;99.90;;;;;;4860862;29;20073;-85
2021/10/14 01:54:50;;;;;;;36.65;15.55;;;11.90;99.90;;;;;;4824958;29;20420;-85
2021/10/14 01:57:16;;;;;;;34.80;17.70;;;12.00;99.90;;;;;;4868603;29;20092;-83
2021/10/14 01:59:42;;;;;;;34.42;16.52;;;11.90;99.90;;;;;;4860895;29;20055;-84
2021/10/14 02:02:08;;;;;;;37.97;16.48;;;11.90;99.90;;;;;;4860066;29;20280;-82
2021/10/14 02:04:33;;;;;;;42.40;17.80;;;12.00;99.90;;;;;;4857248;29;20041;-83
2021/10/14 02:06:59;;;;;;;36.40;17.48;;;12.00;99.90;;;;;;4849291;29;20076;-84
2021/10/14 02:09:25;;;;;;;35.22;16.95;;;12.00;99.90;;;;;;4856554;29;20868;-85
2021/10/14 02:11:51;;;;;;;36.92;17.55;;;12.00;99.90;;;;;;4863022;29;20436;-84
2021/10/14 02:14:17;;;;;;;39.50;16.88;;;12.00;99.90;;;;;;4873736;29;21960;-84
2021/10/14 02:16:43;;;;;;;36.67;18.00;;;12.00;99.90;;;;;;4865914;29;20041;-85
2021/10/14 02:19:09;;;;;;;36.60;15.70;;;12.10;99.90;;;;;;4858919;29;20045;-85
2021/10/14 02:21:35;;;;;;;31.17;16.80;;;12.10;99.90;;;;;;4854834;29;20125;-86
2021/10/14 02:24:00;;;;;;;34.72;16.23;;;12.10;99.90;;;;;;4857570;29;20518;-85
2021/10/14 02:26:26;;;;;;;29.90;15.13;;;12.10;99.90;;;;;;4827601;29;20092;-84
2021/10/14 02:28:52;;;;;;;28.58;14.50;;;12.20;99.90;;;;;;4861032;29;20036;-85
2021/10/14 02:31:18;;;;;;;26.73;14.07;;;12.20;99.90;;;;;;4838999;29;20043;-81
2021/10/14 02:33:44;;;;;;;28.85;13.30;;;12.20;99.90;;;;;;4857837;29;20040;-85
2021/10/14 02:36:09;;;;;;;31.38;14.73;;;12.20;99.90;;;;;;4860899;29;20040;-85
2021/10/14 02:38:35;;;;;;;26.85;12.98;;;12.20;99.90;;;;;;4860055;29;20051;-85
2021/10/14 02:41:02;;;;;;;24.05;11.88;;;12.20;99.90;;;;;;4857802;29;20928;-83
2021/10/14 02:43:28;;;;;;;25.17;12.57;;;12.30;99.90;;;;;;4842496;29;20378;-84
2021/10/14 02:45:54;;;;;;;22.77;11.77;;;12.30;99.90;;;;;;4846526;29;20637;-81
2021/10/14 02:48:20;;;;;;;32.58;12.68;;;12.30;99.90;;;;;;4824786;29;20056;-84
2021/10/14 02:50:46;;;;;;;29.73;12.43;;;12.30;99.90;;;;;;4847052;29;20047;-82
2021/10/14 02:53:12;;;;;;;20.20;10.65;;;12.30;99.90;;;;;;4818095;29;20041;-82
2021/10/14 02:55:38;;;;;;;25.55;10.77;;;12.40;99.90;;;;;;4866823;29;20104;-84
2021/10/14 02:58:04;;;;;;;22.33;10.57;;;12.40;99.90;;;;;;4851204;29;20036;-84
2021/10/14 03:00:30;;;;;;;28.48;11.40;;;12.40;99.90;;;;;;4871177;29;20041;-82
2021/10/14 03:02:55;;;;;;;19.58;10.05;;;12.40;99.90;;;;;;4870012;29;20568;-85
2021/10/14 03:05:21;;;;;;;24.25;10.13;;;12.40;99.90;;;;;;4858639;29;20043;-87
2021/10/14 03:07:47;;;;;;;24.63;10.73;;;12.40;99.90;;;;;;4855497;29;20041;-85
2021/10/14 03:10:13;;;;;;;23.23;11.20;;;12.40;99.90;;;;;;4859918;29;20080;-85
2021/10/14 03:12:39;;;;;;;21.05;11.15;;;12.40;99.90;;;;;;4855527;29;20040;-85
2021/10/14 03:15:06;;;;;;;21.27;9.98;;;12.40;99.90;;;;;;4840183;29;20707;-85
2021/10/14 03:17:32;;;;;;;17.67;9.52;;;12.40;99.90;;;;;;4839817;29;20075;-85
2021/10/14 03:19:58;;;;;;;19.80;9.32;;;12.30;99.90;;;;;;4865266;29;20493;-85
2021/10/14 03:22:23;;;;;;;27.63;10.05;;;12.30;99.90;;;;;;4842002;29;21942;-85
2021/10/14 03:24:50;;;;;;;19.95;9.90;;;12.30;99.90;;;;;;4850602;29;20037;-83
2021/10/14 03:27:15;;;;;;;17.77;9.73;;;12.30;99.90;;;;;;4861511;29;20044;-84
2021/10/14 03:29:41;;;;;;;17.20;9.38;;;12.30;99.90;;;;;;4853654;29;20052;-84
2021/10/14 03:32:07;;;;;;;18.88;9.18;;;12.30;99.90;;;;;;4862562;29;20077;-85
2021/10/14 03:34:33;;;;;;;14.93;8.20;;;12.30;99.90;;;;;;4863989;29;20131;-86
2021/10/14 03:36:59;;;;;;;16.67;9.05;;;12.30;99.90;;;;;;4857918;29;20160;-84
2021/10/14 03:39:25;;;;;;;21.77;9.98;;;12.30;99.90;;;;;;4858608;29;20112;-85
2021/10/14 03:41:51;;;;;;;17.02;8.60;;;12.30;99.90;;;;;;4845475;29;20048;-85
2021/10/14 03:44:17;;;;;;;20.63;9.10;;;12.30;99.90;;;;;;4867745;29;20073;-84
2021/10/14 03:46:43;;;;;;;19.52;8.98;;;12.30;99.90;;;;;;4876672;29;20032;-85
2021/10/14 03:49:10;;;;;;;18.83;8.40;;;12.30;99.90;;;;;;4847628;29;20692;-85
2021/10/14 03:51:35;;;;;;;12.00;6.80;;;12.20;99.90;;;;;;4864544;29;20037;-84
2021/10/14 03:54:01;;;;;;;17.67;8.73;;;12.20;99.90;;;;;;4849729;29;20489;-83
2021/10/14 03:56:27;;;;;;;17.60;8.80;;;12.20;99.90;;;;;;4854951;29;20044;-85
2021/10/14 03:58:53;;;;;;;18.60;9.02;;;12.20;99.90;;;;;;4855504;29;20048;-85
2021/10/14 04:01:19;;;;;;;19.75;9.05;;;12.20;99.90;;;;;;4864716;29;20033;-86
2021/10/14 04:03:45;;;;;;;19.65;9.45;;;12.20;99.90;;;;;;4867012;29;20051;-86
2021/10/14 04:06:10;;;;;;;20.25;8.93;;;12.20;99.90;;;;;;4856315;29;20432;-85
2021/10/14 04:08:37;;;;;;;21.00;9.10;;;12.30;99.90;;;;;;4860776;29;20049;-83
2021/10/14 04:11:03;;;;;;;17.05;8.88;;;12.30;99.90;;;;;;4862712;29;20041;-86
2021/10/14 04:13:29;;;;;;;17.73;9.07;;;12.30;99.90;;;;;;4856231;29;20437;-85
2021/10/14 04:15:55;;;;;;;18.38;9.55;;;12.30;99.90;;;;;;4852705;29;20168;-85
2021/10/14 04:18:21;;;;;;;18.38;9.35;;;12.30;99.90;;;;;;4860225;29;20072;-84
2021/10/14 04:20:47;;;;;;;22.73;10.48;;;12.30;99.90;;;;;;4854680;29;20041;-84
2021/10/14 04:23:14;;;;;;;19.65;10.25;;;12.30;99.90;;;;;;4827273;29;20534;-85
2021/10/14 04:25:40;;;;;;;22.80;10.82;;;12.30;99.90;;;;;;4851648;29;20989;-84
2021/10/14 04:28:06;;;;;;;27.83;12.05;;;12.30;99.90;;;;;;4853557;29;20037;-86
2021/10/14 04:30:33;;;;;;;29.30;11.98;;;12.30;99.90;;;;;;4833964;29;20587;-86
2021/10/14 04:32:59;;;;;;;29.27;13.18;;;12.40;99.90;;;;;;4842655;29;20041;-86
2021/10/14 04:35:25;;;;;;;29.38;13.73;;;12.40;99.90;;;;;;4838650;29;20177;-80
2021/10/14 04:37:52;;;;;;;31.95;15.35;;;12.40;99.90;;;;;;4843874;29;20048;-84
2021/10/14 04:40:18;;;;;;;34.67;16.42;;;12.40;99.90;;;;;;4863641;29;20037;-83
2021/10/14 04:42:44;;;;;;;34.30;16.15;;;12.40;99.90;;;;;;4837508;29;20048;-86
2021/10/14 04:45:10;;;;;;;36.17;16.77;;;12.40;99.90;;;;;;4834023;29;20077;-84
2021/10/14 04:47:36;;;;;;;35.85;16.92;;;12.40;99.90;;;;;;4873500;29;20041;-86
2021/10/14 04:50:04;;;;;;;36.65;17.92;;;12.40;99.90;;;;;;4863522;29;20511;-86
2021/10/14 04:52:31;;;;;;;36.33;17.83;;;12.50;99.90;;;;;;4852533;29;20409;-85
2021/10/14 04:54:56;;;;;;;39.53;19.17;;;12.50;99.90;;;;;;4865027;29;20083;-84
2021/10/14 04:57:22;;;;;;;30.95;18.23;;;12.50;99.90;;;;;;4877839;29;20072;-83
2021/10/14 04:59:48;;;;;;;40.05;19.23;;;12.50;99.90;;;;;;4860830;29;20525;-84
2021/10/14 05:02:14;;;;;;;41.33;19.52;;;12.50;99.90;;;;;;4823070;29;20045;-85
2021/10/14 05:04:40;;;;;;;44.85;21.67;;;12.50;99.90;;;;;;4872768;29;20040;-83
2021/10/14 05:07:06;;;;;;;41.67;21.35;;;12.50;99.90;;;;;;4834969;29;21248;-83
2021/10/14 05:09:32;;;;;;;43.80;22.27;;;12.50;99.90;;;;;;4854849;29;20048;-85
2021/10/14 05:11:59;;;;;;;49.50;24.25;;;12.60;99.90;;;;;;4849751;29;20041;-84
2021/10/14 05:14:26;;;;;;;57.03;24.52;;;12.50;99.90;;;;;;4858405;29;20053;-83
2021/10/14 05:16:53;;;;;;;50.58;24.17;;;12.60;99.90;;;;;;4859999;29;20045;-85
2021/10/14 05:19:23;;;;;;;50.22;25.00;;;12.50;99.90;;;;;;4875804;29;20124;-83
2021/10/14 05:21:50;;;;;;;47.47;24.70;;;12.60;99.90;;;;;;4849756;29;20052;-83
2021/10/14 05:24:16;;;;;;;51.38;24.13;;;12.60;99.90;;;;;;4848628;29;20043;-84
2021/10/14 05:26:42;;;;;;;45.67;23.20;;;12.60;99.90;;;;;;4855280;29;20037;-85
2021/10/14 05:29:08;;;;;;;51.30;23.75;;;12.60;99.90;;;;;;4841003;29;20426;-85
2021/10/14 05:31:36;;;;;;;53.78;22.92;;;12.60;99.90;;;;;;4851896;29;20395;-84
2021/10/14 05:34:01;;;;;;;49.30;23.38;;;12.60;99.90;;;;;;4864282;29;20547;-83
2021/10/14 05:36:29;;;;;;;48.38;22.48;;;12.60;99.90;;;;;;4841680;29;20068;-85
2021/10/14 05:38:55;;;;;;;50.70;23.00;;;12.60;99.90;;;;;;4857411;29;20755;-85
2021/10/14 05:41:21;;;;;;;45.80;23.70;;;12.60;99.90;;;;;;4863084;29;20040;-84
2021/10/14 05:43:48;;;;;;;45.95;23.52;;;12.60;99.90;;;;;;4859554;29;20045;-83
2021/10/14 05:46:16;;;;;;;47.55;23.02;;;12.60;99.90;;;;;;4813393;29;20658;-84
2021/10/14 05:48:42;;;;;;;43.83;22.10;;;12.60;99.90;;;;;;4810625;29;20040;-83
2021/10/14 05:51:07;;;;;;;43.60;21.80;;;12.60;99.90;;;;;;4841372;29;20036;-83
2021/10/14 05:53:35;;;;;;;48.08;22.77;;;12.60;99.90;;;;;;4844601;29;20056;-84
2021/10/14 05:56:02;;;;;;;47.33;23.95;;;12.60;99.90;;;;;;4849340;29;20072;-84
2021/10/14 05:58:28;;;;;;;47.75;23.50;;;12.60;99.90;;;;;;4846870;29;20071;-84
2021/10/14 06:00:55;;;;;;;44.83;22.23;;;12.60;99.90;;;;;;4865552;29;20299;-84
2021/10/14 06:03:22;;;;;;;42.60;23.00;;;12.60;99.90;;;;;;4843237;29;20033;-86
2021/10/14 06:05:49;;;;;;;53.38;23.52;;;12.70;99.90;;;;;;4875171;29;20037;-86
2021/10/14 06:08:15;;;;;;;50.10;22.90;;;12.70;99.90;;;;;;4868801;29;20044;-84
2021/10/14 06:10:41;;;;;;;51.45;23.48;;;12.70;99.90;;;;;;4854513;29;20089;-85
2021/10/14 06:13:14;;;;;;;45.95;23.55;;;12.70;99.90;;;;;;4845849;29;20052;-83
2021/10/14 06:15:40;;;;;;;46.30;22.20;;;12.70;99.90;;;;;;4878924;29;20045;-85
2021/10/14 06:18:06;;;;;;;45.83;23.45;;;12.70;99.90;;;;;;4854243;29;20045;-83
2021/10/14 06:20:34;;;;;;;42.25;22.63;;;12.70;99.90;;;;;;4859115;29;20051;-85
2021/10/14 06:23:04;;;;;;;49.85;23.08;;;12.80;99.90;;;;;;4848426;29;20490;-85
2021/10/14 06:25:31;;;;;;;44.30;22.67;;;12.80;99.90;;;;;;4859038;29;20036;-84
2021/10/14 06:27:57;;;;;;;39.53;21.02;;;12.80;99.90;;;;;;4850609;29;20067;-84
2021/10/14 06:30:25;;;;;;;38.10;21.27;;;12.80;99.90;;;;;;4852355;29;20049;-84
2021/10/14 06:32:53;;;;;;;37.47;20.73;;;12.80;99.90;;;;;;4851232;29;20497;-84
2021/10/14 06:35:20;;;;;;;40.83;20.65;;;12.80;99.90;;;;;;4855693;29;20525;-84
2021/10/14 06:37:46;;;;;;;38.53;21.80;;;12.80;99.90;;;;;;4847163;29;20445;-83
2021/10/14 06:40:11;;;;;;;41.58;22.10;;;12.80;99.90;;;;;;4858586;29;20047;-86
2021/10/14 06:42:38;;;;;;;36.88;20.60;;;12.90;99.90;;;;;;4848589;29;20036;-83
2021/10/14 06:45:06;;;;;;;39.35;20.90;;;12.90;99.90;;;;;;4858150;29;20311;-85
2021/10/14 06:47:33;;;;;;;35.38;20.35;;;12.90;99.90;;;;;;4862543;29;20049;-84
2021/10/14 06:49:59;;;;;;;32.50;19.52;;;12.90;99.90;;;;;;4847909;29;20041;-84
2021/10/14 06:52:25;;;;;;;38.72;20.33;;;12.90;99.90;;;;;;4846392;29;21008;-85
2021/10/14 06:54:52;;;;;;;36.45;18.95;;;12.90;99.90;;;;;;4863439;29;20044;-86
2021/10/14 06:57:20;;;;;;;47.42;20.75;;;13.00;99.90;;;;;;4859558;29;20084;-84
2021/10/14 06:59:47;;;;;;;39.22;20.08;;;13.00;99.90;;;;;;4859583;29;20045;-85
2021/10/14 07:02:16;;;;;;;35.20;19.25;;;13.00;99.90;;;;;;4845476;29;20127;-84
2021/10/14 07:04:41;;;;;;;33.03;19.10;;;13.00;99.90;;;;;;4857534;29;20502;-83
2021/10/14 07:07:07;;;;;;;30.50;17.27;;;13.00;99.90;;;;;;4871300;29;20111;-84
2021/10/14 07:09:33;;;;;;;27.55;16.90;;;13.00;99.90;;;;;;4855608;29;20112;-83
2021/10/14 07:12:05;;;;;;;26.40;15.02;;;13.00;99.90;;;;;;4861318;29;20132;-83
2021/10/14 07:14:32;;;;;;;23.45;14.95;;;13.00;99.90;;;;;;4864727;29;20075;-84
2021/10/14 07:16:57;;;;;;;30.35;15.43;;;13.00;99.90;;;;;;4869976;29;20047;-83
2021/10/14 07:19:23;;;;;;;29.55;14.95;;;13.00;99.90;;;;;;4834355;29;20045;-82
2021/10/14 07:21:49;;;;;;;28.17;14.27;;;13.00;99.90;;;;;;4844910;29;20045;-83
2021/10/14 07:24:17;;;;;;;21.38;12.95;;;13.00;99.90;;;;;;4875904;29;20048;-83
2021/10/14 07:26:44;;;;;;;22.25;12.80;;;13.00;99.90;;;;;;4845208;29;20041;-84
2021/10/14 07:29:11;;;;;;;23.63;13.07;;;13.00;99.90;;;;;;4873477;29;20044;-83
2021/10/14 07:31:37;;;;;;;21.83;12.35;;;13.00;99.90;;;;;;4859861;29;20036;-83
2021/10/14 07:34:04;;;;;;;25.45;13.55;;;13.00;99.90;;;;;;4854361;29;20072;-84
2021/10/14 07:36:31;;;;;;;22.10;13.10;;;13.00;99.90;;;;;;4857754;29;20037;-84
2021/10/14 07:38:58;;;;;;;18.50;11.20;;;13.00;99.90;;;;;;4844650;29;20040;-84
2021/10/14 07:41:24;;;;;;;20.60;10.43;;;13.00;99.90;;;;;;4865075;29;20049;-84
2021/10/14 07:43:50;;;;;;;17.83;10.75;;;13.00;99.90;;;;;;4850851;29;20044;-84
2021/10/14 07:46:16;;;;;;;19.90;11.18;;;13.00;99.90;;;;;;4876460;29;20573;-85
2021/10/14 07:48:44;;;;;;;21.05;11.05;;;13.00;99.90;;;;;;4852775;29;20127;-85
2021/10/14 07:51:11;;;;;;;22.13;11.95;;;13.00;99.90;;;;;;4844357;29;20057;-85
2021/10/14 07:53:40;;;;;;;18.15;10.90;;;13.00;99.90;;;;;;4875297;29;20123;-85
2021/10/14 07:56:07;;;;;;;15.90;9.85;;;13.00;99.90;;;;;;4827052;29;20595;-84
2021/10/14 07:58:33;;;;;;;19.85;10.48;;;13.00;99.90;;;;;;4881232;29;20075;-83
2021/10/14 08:01:00;;;;;;;18.83;10.13;;;13.00;99.90;;;;;;4876807;29;20044;-85
2021/10/14 08:03:26;;;;;;;23.77;9.23;;;13.00;99.90;;;;;;4863760;29;20044;-83
2021/10/14 08:05:57;;;;;;;17.35;9.55;;;13.00;99.90;;;;;;4879231;29;20037;-84
2021/10/14 08:08:24;;;;;;;19.38;10.07;;;13.00;99.90;;;;;;4851943;29;20136;-84
2021/10/14 08:10:52;;;;;;;18.30;9.93;;;13.00;99.90;;;;;;4860113;29;20493;-84
2021/10/14 08:13:21;;;;;;;15.13;9.80;;;13.00;99.90;;;;;;4845902;29;20179;-84
2021/10/14 08:15:52;;;;;;;14.65;9.40;;;13.00;99.90;;;;;;4829033;29;20055;-84
2021/10/14 08:18:21;;;;;;;19.65;10.10;;;13.00;99.90;;;;;;4856162;29;20044;-85
2021/10/14 08:20:57;;;;;;;22.38;10.02;;;13.00;99.90;;;;;;4831486;29;20060;-84
2021/10/14 08:23:25;;;;;;;17.73;8.98;;;13.00;99.90;;;;;;4865505;29;20041;-84
2021/10/14 08:25:52;;;;;;;14.73;8.70;;;13.00;99.90;;;;;;4862524;29;20068;-84
2021/10/14 08:28:18;;;;;;;17.90;9.48;;;13.00;99.90;;;;;;4842053;29;20649;-84
2021/10/14 08:30:47;;;;;;;16.10;8.18;;;13.10;99.90;;;;;;4837332;29;20131;-84
2021/10/14 08:33:14;;;;;;;19.10;9.30;;;13.00;99.90;;;;;;4864303;29;20096;-84
2021/10/14 08:35:41;;;;;;;25.38;10.82;;;13.10;99.90;;;;;;4853626;29;20044;-85
2021/10/14 08:38:09;;;;;;;17.25;9.52;;;13.10;99.90;;;;;;4877641;29;20293;-84
2021/10/14 08:40:36;;;;;;;23.45;11.07;;;13.10;99.90;;;;;;4871979;29;20048;-85
2021/10/14 08:43:06;;;;;;;16.70;10.52;;;13.10;99.90;;;;;;4853775;29;20136;-83
2021/10/14 08:45:37;;;;;;;17.15;10.15;;;13.10;99.90;;;;;;4879302;29;20449;-84
2021/10/14 08:48:04;;;;;;;21.00;9.65;;;13.10;99.90;;;;;;4878620;29;20160;-85
2021/10/14 08:50:35;;;;;;;20.08;9.48;;;13.10;99.90;;;;;;4851077;29;20040;-83
2021/10/14 08:53:01;;;;;;;16.88;8.98;;;13.10;99.90;;;;;;4879571;29;20116;-84
2021/10/14 08:55:27;;;;;;;17.70;9.10;;;13.10;99.90;;;;;;4876244;29;20040;-84
2021/10/14 08:57:56;;;;;;;16.15;9.38;;;13.10;99.90;;;;;;4862835;29;20143;-84
2021/10/14 09:00:21;;;;;;;19.20;8.85;;;13.10;99.90;;;;;;4882907;29;20041;-83
2021/10/14 09:02:48;;;;;;;14.88;8.48;;;13.10;99.90;;;;;;4875667;29;20067;-84
2021/10/14 09:05:14;;;;;;;13.82;8.43;;;13.10;99.90;;;;;;4838063;29;20052;-83
2021/10/14 09:07:41;;;;;;;13.75;7.97;;;13.10;99.90;;;;;;4866657;29;20047;-85
2021/10/14 09:10:13;;;;;;;15.90;8.10;;;13.20;99.90;;;;;;4866907;29;20052;-84
2021/10/14 09:12:44;;;;;;;14.53;7.87;;;13.20;99.90;;;;;;4881883;29;20394;-84
2021/10/14 09:15:18;;;;;;;17.15;8.13;;;13.20;99.90;;;;;;4877199;29;20044;-82
2021/10/14 09:17:48;;;;;;;16.25;8.10;;;13.20;99.90;;;;;;4887278;29;20048;-83
2021/10/14 09:20:33;;;;;;;13.30;8.10;;;13.30;99.90;;;;;;4881739;29;20044;-84
2021/10/14 09:23:08;;;;;;;16.20;8.55;;;13.30;99.90;;;;;;4880043;29;20221;-85
2021/10/14 09:25:34;;;;;;;15.57;7.97;;;13.40;99.90;;;;;;4890738;29;20512;-83
2021/10/14 09:28:15;;;;;;;14.35;8.25;;;13.40;99.90;;;;;;4872456;29;20048;-82
2021/10/14 09:30:48;;;;;;;15.68;7.90;;;13.40;99.90;;;;;;4880114;29;20041;-85
2021/10/14 09:33:37;;;;;;;15.05;8.23;;;13.50;99.90;;;;;;4864454;29;20052;-84
2021/10/14 09:36:25;;;;;;;15.13;8.13;;;13.60;99.90;;;;;;4869822;29;20049;-84
2021/10/14 09:39:03;;;;;;;16.92;8.05;;;13.60;99.90;;;;;;4864663;29;20172;-83
2021/10/14 09:41:31;;;;;;;15.93;7.85;;;13.60;99.90;;;;;;4885550;29;20069;-83
2021/10/14 09:44:12;;;;;;;13.02;7.57;;;13.60;99.90;;;;;;4864164;29;20045;-85
2021/10/14 09:46:46;;;;;;;14.93;7.32;;;13.70;99.90;;;;;;4879171;29;20037;-83
2021/10/14 09:49:27;;;;;;;16.38;7.65;;;13.70;99.90;;;;;;4875393;29;20052;-85
2021/10/14 09:51:53;;;;;;;13.88;8.00;;;13.70;99.90;;;;;;4862694;29;20246;-83
2021/10/14 09:54:19;;;;;;;12.10;8.10;;;13.70;99.90;;;;;;4859348;29;20245;-84
2021/10/14 09:56:45;;;;;;;13.10;7.60;;;13.80;99.90;;;;;;4843813;29;20404;-83
2021/10/14 09:59:11;;;;;;;15.60;7.93;;;13.80;99.90;;;;;;4862115;29;20047;-84
2021/10/14 10:01:41;;;;;;;20.13;8.75;;;13.80;99.90;;;;;;4856211;29;20044;-84
2021/10/14 10:04:07;;;;;;;14.57;8.05;;;13.80;99.90;;;;;;4868819;29;20283;-84
2021/10/14 10:06:36;;;;;;;14.23;7.90;;;13.90;99.90;;;;;;4863105;29;20127;-83
2021/10/14 10:09:25;;;;;;;15.18;7.90;;;13.90;99.90;;;;;;4860805;29;20304;-83
2021/10/14 10:11:54;;;;;;;12.25;7.70;;;13.90;99.90;;;;;;4876913;29;20041;-84
2021/10/14 10:14:24;;;;;;;11.27;7.57;;;14.00;99.90;;;;;;4870015;29;20047;-86
2021/10/14 10:16:59;;;;;;;17.13;7.55;;;14.00;99.90;;;;;;4866488;29;20040;-83
2021/10/14 10:19:44;;;;;;;12.00;6.75;;;14.00;99.90;;;;;;4881721;29;20418;-83
2021/10/14 10:22:11;;;;;;;14.10;6.60;;;14.00;99.90;;;;;;4877679;29;20442;-82
2021/10/14 10:24:37;;;;;;;16.15;7.90;;;14.10;99.90;;;;;;4868109;29;20052;-83
2021/10/14 10:27:08;;;;;;;13.00;7.28;;;14.10;99.90;;;;;;4846160;29;20711;-83
2021/10/14 10:29:41;;;;;;;11.35;6.70;;;14.10;99.90;;;;;;4861685;29;21270;-83
2021/10/14 10:32:07;;;;;;;11.15;7.15;;;14.10;99.90;;;;;;4836307;29;20052;-83
2021/10/14 10:34:44;;;;;;;15.45;7.53;;;14.10;99.90;;;;;;4838652;29;21136;-84
2021/10/14 10:37:22;;;;;;;15.88;6.88;;;14.10;99.90;;;;;;4853185;29;20072;-84
2021/10/14 10:40:09;;;;;;;14.93;6.75;;;14.00;99.90;;;;;;4852706;29;20108;-84
2021/10/14 10:42:40;;;;;;;10.95;6.55;;;14.10;99.90;;;;;;4844944;29;20426;-83
2021/10/14 10:45:07;;;;;;;11.23;6.30;;;14.10;99.90;;;;;;4857043;29;20060;-84
2021/10/14 10:47:44;;;;;;;13.10;6.20;;;14.00;99.90;;;;;;4849576;29;20089;-83
2021/10/14 10:50:29;;;;;;;12.45;5.78;;;14.00;99.90;;;;;;4866645;29;20299;-83
2021/10/14 10:53:09;;;;;;;12.23;6.10;;;14.00;99.90;;;;;;4875922;29;20053;-82
2021/10/14 10:55:36;;;;;;;13.75;6.75;;;13.90;99.90;;;;;;4890586;29;20064;-85
2021/10/14 10:58:03;;;;;;;12.93;6.57;;;13.90;99.90;;;;;;4880958;29;20093;-83
2021/10/14 11:00:29;;;;;;;7.82;5.82;;;13.90;99.90;;;;;;4866910;29;20041;-84
2021/10/14 11:03:14;;;;;;;12.00;6.63;;;13.90;99.90;;;;;;4854052;29;20056;-82
2021/10/14 11:05:43;;;;;;;9.50;6.30;;;14.00;99.90;;;;;;4872767;29;20033;-83
2021/10/14 11:08:10;;;;;;;11.10;6.22;;;14.00;99.90;;;;;;4872174;29;20071;-82
2021/10/14 11:10:36;;;;;;;13.32;6.78;;;14.10;99.90;;;;;;4858444;29;20037;-83
2021/10/14 11:13:03;;;;;;;10.73;6.13;;;14.10;99.90;;;;;;4874366;29;20591;-83
2021/10/14 11:15:30;;;;;;;18.83;7.00;;;14.10;99.90;;;;;;4880086;29;20049;-83
2021/10/14 11:18:02;;;;;;;9.40;5.80;;;14.20;99.90;;;;;;4877913;29;20108;-86
2021/10/14 11:20:28;;;;;;;11.45;6.28;;;14.20;99.90;;;;;;4851180;29;20272;-83
2021/10/14 11:23:09;;;;;;;14.50;5.97;;;14.20;99.90;;;;;;4855362;29;20045;-85
2021/10/14 11:25:35;;;;;;;13.10;6.03;;;14.30;99.90;;;;;;4879106;29;20044;-82
2021/10/14 11:28:06;;;;;;;9.43;5.60;;;14.30;99.90;;;;;;4849354;29;20043;-84
2021/10/14 11:30:42;;;;;;;12.02;6.30;;;14.30;99.90;;;;;;4882181;29;20606;-83
2021/10/14 11:33:28;;;;;;;15.77;5.97;;;14.30;99.90;;;;;;4884879;29;20099;-84
2021/10/14 11:36:02;;;;;;;8.75;5.07;;;14.40;99.90;;;;;;4882660;29;20036;-83
2021/10/14 11:38:29;;;;;;;9.75;5.28;;;14.40;99.90;;;;;;4888264;29;20048;-83
2021/10/14 11:40:55;;;;;;;8.05;4.57;;;14.40;99.90;;;;;;4876072;29;20107;-83
2021/10/14 11:43:30;;;;;;;8.70;4.35;;;14.50;99.90;;;;;;4867890;29;20468;-83
2021/10/14 11:45:59;;;;;;;9.95;4.70;;;14.50;99.90;;;;;;4878382;29;20184;-84
2021/10/14 11:48:35;;;;;;;12.27;4.35;;;14.50;99.90;;;;;;4872816;29;20033;-82
2021/10/14 11:51:06;;;;;;;10.10;4.50;;;14.60;99.90;;;;;;4869143;29;20040;-88
2021/10/14 11:53:33;;;;;;;9.45;3.72;;;14.60;99.90;;;;;;4877708;29;20048;-82
2021/10/14 11:56:05;;;;;;;6.45;4.03;;;14.60;99.90;;;;;;4853296;29;20405;-87
2021/10/14 11:58:35;;;;;;;7.22;4.50;;;14.60;99.90;;;;;;4873839;29;20197;-83
2021/10/14 12:01:12;;;;;;;9.52;4.28;;;14.60;99.90;;;;;;4868337;29;20045;-81
2021/10/14 12:03:39;;;;;;;8.90;4.68;;;14.70;99.90;;;;;;4889901;29;20119;-81
2021/10/14 12:06:07;;;;;;;5.88;4.03;;;14.80;99.90;;;;;;4863886;29;20378;-85
2021/10/14 12:08:34;;;;;;;8.18;4.35;;;14.80;99.90;;;;;;4877346;29;20128;-87
2021/10/14 12:11:00;;;;;;;6.70;4.20;;;14.80;99.90;;;;;;4870079;29;20664;-82
2021/10/14 12:13:28;;;;;;;10.43;5.05;;;14.80;99.90;;;;;;4883611;29;20056;-85
2021/10/14 12:16:12;;;;;;;9.85;4.80;;;14.80;99.80;;;;;;4878844;29;20167;-83
2021/10/14 12:18:39;;;;;;;12.63;4.82;;;14.80;99.90;;;;;;4886392;29;20093;-81
2021/10/14 12:21:29;;;;;;;9.88;5.63;;;14.80;99.60;;;;;;4851960;29;20040;-84
2021/10/14 12:24:13;;;;;;;10.80;5.65;;;14.80;99.80;;;;;;4877706;29;20109;-83
2021/10/14 12:26:57;;;;;;;11.95;5.32;;;14.80;99.80;;;;;;4882987;29;20081;-81
2021/10/14 12:29:30;;;;;;;11.43;4.80;;;14.80;99.90;;;;;;4854589;29;20048;-87
2021/10/14 12:32:13;;;;;;;6.68;4.70;;;14.80;99.60;;;;;;4879555;29;20068;-84
2021/10/14 12:34:40;;;;;;;;;;;14.70;99.40;;;;;;4883033;29;20509;-85
2021/10/14 12:37:07;;;;;;;9.38;4.63;;;14.70;99.70;;;;;;4866878;29;19926;-88
2021/10/14 12:39:33;;;;;;;8.63;4.57;;;14.70;99.50;;;;;;4874633;29;20092;-82